Skip Navigation LinksHome page > Weather > Current weather Skip Navigation Links

Current Weather

Sarh, Chad

For information only: do not use for flight planning or navigation.
Latest weather
Observation time Wednesday, December 17, 2014 10:00 PM WAT
Local time Wednesday, December 17, 2014 10:50 PM WAT
Flight conditions Conditions unknown
Winds
Wind speed calm
Sky condition
Ceiling unlimited
Temperature 75°F
Dewpoint 59°F
Altimeter 29.91 in.Hg
Derived measurements
Relative humidity 57%
Density altitude 1653 ft.
METAR FTTA 172100Z 00000KT CAV0K 24/15 Q1013

Settings

Location code

InnerDrive.Weather 4.0.5399.0 Release CLR 4.0.30319.34014
Copyright ©2014 Inner Drive Technology. All rights reserved. Portions Copyright ©1986-2014 David Braverman.

Find weather

Site navigation


Skip Navigation Links

Place info

Page info

PayPal - The safer, easier way to pay online!

Return home.

Copyright ©2014 Inner Drive Technology. Purveyors of fine, hand-crafted computer software. Page printed 2014-12-17T21:50:24 UTC.